sensor_id;sensor_type;location;lat;lon;timestamp;P1;durP1;ratioP1;P2;durP2;ratioP2
48363;SDS011;34170;54.364;18.582;2023-07-29T00:02:03;13.70;;;10.52;;
48363;SDS011;34170;54.364;18.582;2023-07-29T00:04:31;13.50;;;10.43;;
48363;SDS011;34170;54.364;18.582;2023-07-29T00:06:59;15.02;;;10.45;;
48363;SDS011;34170;54.364;18.582;2023-07-29T00:09:26;14.07;;;10.25;;
48363;SDS011;34170;54.364;18.582;2023-07-29T00:11:54;18.45;;;10.93;;
48363;SDS011;34170;54.364;18.582;2023-07-29T00:14:21;15.30;;;10.40;;
48363;SDS011;34170;54.364;18.582;2023-07-29T00:16:49;12.05;;;9.23;;
48363;SDS011;34170;54.364;18.582;2023-07-29T00:19:16;13.90;;;9.98;;
48363;SDS011;34170;54.364;18.582;2023-07-29T00:21:44;14.07;;;10.15;;
48363;SDS011;34170;54.364;18.582;2023-07-29T00:24:11;13.43;;;10.00;;
48363;SDS011;34170;54.364;18.582;2023-07-29T00:26:39;15.18;;;10.90;;
48363;SDS011;34170;54.364;18.582;2023-07-29T00:29:06;16.40;;;11.73;;
48363;SDS011;34170;54.364;18.582;2023-07-29T00:31:34;24.17;;;10.98;;
48363;SDS011;34170;54.364;18.582;2023-07-29T00:34:01;15.88;;;10.20;;
48363;SDS011;34170;54.364;18.582;2023-07-29T00:36:29;14.13;;;10.25;;
48363;SDS011;34170;54.364;18.582;2023-07-29T00:38:56;13.98;;;9.85;;
48363;SDS011;34170;54.364;18.582;2023-07-29T00:41:24;16.25;;;10.77;;
48363;SDS011;34170;54.364;18.582;2023-07-29T00:43:52;14.32;;;10.77;;
48363;SDS011;34170;54.364;18.582;2023-07-29T00:46:20;13.80;;;10.65;;
48363;SDS011;34170;54.364;18.582;2023-07-29T00:48:49;15.30;;;10.45;;
48363;SDS011;34170;54.364;18.582;2023-07-29T00:51:16;15.73;;;11.35;;
48363;SDS011;34170;54.364;18.582;2023-07-29T00:53:44;13.93;;;10.48;;
48363;SDS011;34170;54.364;18.582;2023-07-29T00:56:12;14.23;;;9.95;;
48363;SDS011;34170;54.364;18.582;2023-07-29T00:58:40;14.60;;;11.13;;
48363;SDS011;34170;54.364;18.582;2023-07-29T01:01:07;15.77;;;10.70;;
48363;SDS011;34170;54.364;18.582;2023-07-29T01:03:35;13.98;;;10.00;;
48363;SDS011;34170;54.364;18.582;2023-07-29T01:11:49;18.02;;;12.40;;
48363;SDS011;34170;54.364;18.582;2023-07-29T01:14:51;15.27;;;11.43;;
48363;SDS011;34170;54.364;18.582;2023-07-29T01:17:36;18.45;;;12.55;;
48363;SDS011;34170;54.364;18.582;2023-07-29T01:20:16;16.35;;;11.85;;
48363;SDS011;34170;54.364;18.582;2023-07-29T01:22:47;15.50;;;11.40;;
48363;SDS011;34170;54.364;18.582;2023-07-29T01:25:15;15.50;;;11.75;;
48363;SDS011;34170;54.364;18.582;2023-07-29T01:27:44;18.30;;;12.65;;
48363;SDS011;34170;54.364;18.582;2023-07-29T01:30:13;17.88;;;12.30;;
48363;SDS011;34170;54.364;18.582;2023-07-29T01:35:42;22.38;;;12.70;;
48363;SDS011;34170;54.364;18.582;2023-07-29T01:38:27;14.95;;;12.00;;
48363;SDS011;34170;54.364;18.582;2023-07-29T01:41:01;16.67;;;11.88;;
48363;SDS011;34170;54.364;18.582;2023-07-29T01:43:32;14.13;;;11.27;;
48363;SDS011;34170;54.364;18.582;2023-07-29T01:46:00;16.15;;;12.20;;
48363;SDS011;34170;54.364;18.582;2023-07-29T01:48:28;18.98;;;13.20;;
48363;SDS011;34170;54.364;18.582;2023-07-29T01:50:57;18.33;;;12.77;;
48363;SDS011;34170;54.364;18.582;2023-07-29T01:53:25;18.63;;;12.05;;
48363;SDS011;34170;54.364;18.582;2023-07-29T01:55:52;16.77;;;12.35;;
48363;SDS011;34170;54.364;18.582;2023-07-29T01:58:20;16.08;;;12.18;;
48363;SDS011;34170;54.364;18.582;2023-07-29T02:00:48;14.63;;;11.75;;
48363;SDS011;34170;54.364;18.582;2023-07-29T02:03:15;17.08;;;12.32;;
48363;SDS011;34170;54.364;18.582;2023-07-29T02:05:43;16.45;;;11.90;;
48363;SDS011;34170;54.364;18.582;2023-07-29T02:08:11;16.33;;;11.65;;
48363;SDS011;34170;54.364;18.582;2023-07-29T02:10:38;17.10;;;12.38;;
48363;SDS011;34170;54.364;18.582;2023-07-29T02:13:06;16.38;;;12.40;;
48363;SDS011;34170;54.364;18.582;2023-07-29T02:15:34;17.08;;;12.85;;
48363;SDS011;34170;54.364;18.582;2023-07-29T02:18:01;18.92;;;13.90;;
48363;SDS011;34170;54.364;18.582;2023-07-29T02:20:30;19.75;;;13.98;;
48363;SDS011;34170;54.364;18.582;2023-07-29T02:22:58;16.67;;;13.32;;
48363;SDS011;34170;54.364;18.582;2023-07-29T02:25:25;18.33;;;13.00;;
48363;SDS011;34170;54.364;18.582;2023-07-29T02:27:53;19.23;;;12.70;;
48363;SDS011;34170;54.364;18.582;2023-07-29T02:30:21;17.63;;;13.27;;
48363;SDS011;34170;54.364;18.582;2023-07-29T02:32:48;18.17;;;12.82;;
48363;SDS011;34170;54.364;18.582;2023-07-29T02:35:16;18.08;;;12.88;;
48363;SDS011;34170;54.364;18.582;2023-07-29T02:37:44;18.50;;;13.93;;
48363;SDS011;34170;54.364;18.582;2023-07-29T02:40:12;17.98;;;12.55;;
48363;SDS011;34170;54.364;18.582;2023-07-29T02:42:40;20.65;;;12.82;;
48363;SDS011;34170;54.364;18.582;2023-07-29T02:45:07;19.58;;;13.50;;
48363;SDS011;34170;54.364;18.582;2023-07-29T02:47:37;18.98;;;12.95;;
48363;SDS011;34170;54.364;18.582;2023-07-29T02:50:05;18.83;;;12.13;;
48363;SDS011;34170;54.364;18.582;2023-07-29T02:52:33;16.90;;;11.95;;
48363;SDS011;34170;54.364;18.582;2023-07-29T02:55:00;17.27;;;12.35;;
48363;SDS011;34170;54.364;18.582;2023-07-29T02:57:28;16.85;;;12.30;;
48363;SDS011;34170;54.364;18.582;2023-07-29T02:59:55;16.60;;;12.77;;
48363;SDS011;34170;54.364;18.582;2023-07-29T03:02:23;17.50;;;12.25;;
48363;SDS011;34170;54.364;18.582;2023-07-29T03:04:50;19.92;;;13.35;;
48363;SDS011;34170;54.364;18.582;2023-07-29T03:07:18;18.30;;;13.95;;
48363;SDS011;34170;54.364;18.582;2023-07-29T03:09:46;17.90;;;12.23;;
48363;SDS011;34170;54.364;18.582;2023-07-29T03:12:13;18.95;;;13.63;;
48363;SDS011;34170;54.364;18.582;2023-07-29T03:14:41;18.13;;;13.15;;
48363;SDS011;34170;54.364;18.582;2023-07-29T03:17:08;17.08;;;13.27;;
48363;SDS011;34170;54.364;18.582;2023-07-29T03:19:36;17.00;;;11.90;;
48363;SDS011;34170;54.364;18.582;2023-07-29T03:22:04;17.45;;;12.77;;
48363;SDS011;34170;54.364;18.582;2023-07-29T03:24:31;17.30;;;12.38;;
48363;SDS011;34170;54.364;18.582;2023-07-29T03:26:59;18.35;;;13.15;;
48363;SDS011;34170;54.364;18.582;2023-07-29T03:29:27;16.83;;;12.20;;
48363;SDS011;34170;54.364;18.582;2023-07-29T03:31:55;14.10;;;11.30;;
48363;SDS011;34170;54.364;18.582;2023-07-29T03:34:22;16.17;;;11.73;;
48363;SDS011;34170;54.364;18.582;2023-07-29T03:36:50;15.25;;;11.50;;
48363;SDS011;34170;54.364;18.582;2023-07-29T03:39:18;17.20;;;12.35;;
48363;SDS011;34170;54.364;18.582;2023-07-29T03:41:46;18.35;;;12.32;;
48363;SDS011;34170;54.364;18.582;2023-07-29T03:44:13;16.90;;;11.93;;
48363;SDS011;34170;54.364;18.582;2023-07-29T03:46:41;18.85;;;12.32;;
48363;SDS011;34170;54.364;18.582;2023-07-29T03:49:09;15.73;;;11.23;;
48363;SDS011;34170;54.364;18.582;2023-07-29T03:51:37;13.88;;;10.15;;
48363;SDS011;34170;54.364;18.582;2023-07-29T03:54:05;14.32;;;10.43;;
48363;SDS011;34170;54.364;18.582;2023-07-29T03:56:32;13.70;;;10.05;;
48363;SDS011;34170;54.364;18.582;2023-07-29T03:59:03;12.57;;;9.15;;
48363;SDS011;34170;54.364;18.582;2023-07-29T04:01:33;12.32;;;9.38;;
48363;SDS011;34170;54.364;18.582;2023-07-29T04:04:00;14.10;;;8.82;;
48363;SDS011;34170;54.364;18.582;2023-07-29T04:06:28;10.90;;;8.23;;
48363;SDS011;34170;54.364;18.582;2023-07-29T04:08:56;12.75;;;8.98;;
48363;SDS011;34170;54.364;18.582;2023-07-29T04:11:23;10.65;;;7.53;;
48363;SDS011;34170;54.364;18.582;2023-07-29T04:13:51;10.38;;;7.40;;
48363;SDS011;34170;54.364;18.582;2023-07-29T04:16:19;8.48;;;6.90;;
48363;SDS011;34170;54.364;18.582;2023-07-29T04:18:46;8.45;;;6.72;;
48363;SDS011;34170;54.364;18.582;2023-07-29T04:21:14;10.63;;;6.80;;
48363;SDS011;34170;54.364;18.582;2023-07-29T04:23:41;9.60;;;7.13;;
48363;SDS011;34170;54.364;18.582;2023-07-29T04:26:09;10.07;;;7.32;;
48363;SDS011;34170;54.364;18.582;2023-07-29T04:28:36;8.93;;;6.97;;
48363;SDS011;34170;54.364;18.582;2023-07-29T04:31:04;11.77;;;7.60;;
48363;SDS011;34170;54.364;18.582;2023-07-29T04:33:32;9.77;;;6.85;;
48363;SDS011;34170;54.364;18.582;2023-07-29T04:38:32;8.55;;;6.68;;
48363;SDS011;34170;54.364;18.582;2023-07-29T04:41:00;9.95;;;6.90;;
48363;SDS011;34170;54.364;18.582;2023-07-29T04:43:32;8.60;;;6.45;;
48363;SDS011;34170;54.364;18.582;2023-07-29T04:46:00;7.50;;;5.63;;
48363;SDS011;34170;54.364;18.582;2023-07-29T04:48:27;10.48;;;6.18;;
48363;SDS011;34170;54.364;18.582;2023-07-29T04:50:55;8.77;;;5.85;;
48363;SDS011;34170;54.364;18.582;2023-07-29T04:53:22;8.05;;;5.57;;
48363;SDS011;34170;54.364;18.582;2023-07-29T04:55:50;7.28;;;5.45;;
48363;SDS011;34170;54.364;18.582;2023-07-29T04:58:17;6.20;;;5.25;;
48363;SDS011;34170;54.364;18.582;2023-07-29T05:00:48;7.28;;;5.65;;
48363;SDS011;34170;54.364;18.582;2023-07-29T05:03:15;7.07;;;5.32;;
48363;SDS011;34170;54.364;18.582;2023-07-29T05:05:43;7.32;;;5.22;;
48363;SDS011;34170;54.364;18.582;2023-07-29T05:08:11;6.15;;;4.82;;
48363;SDS011;34170;54.364;18.582;2023-07-29T05:10:38;7.10;;;5.32;;
48363;SDS011;34170;54.364;18.582;2023-07-29T05:13:06;5.85;;;4.60;;
48363;SDS011;34170;54.364;18.582;2023-07-29T05:15:34;6.57;;;5.13;;
48363;SDS011;34170;54.364;18.582;2023-07-29T05:18:01;5.35;;;4.18;;
48363;SDS011;34170;54.364;18.582;2023-07-29T05:20:29;7.85;;;4.55;;
48363;SDS011;34170;54.364;18.582;2023-07-29T05:22:56;6.70;;;4.88;;
48363;SDS011;34170;54.364;18.582;2023-07-29T05:25:24;5.55;;;4.50;;
48363;SDS011;34170;54.364;18.582;2023-07-29T05:27:51;6.47;;;4.38;;
48363;SDS011;34170;54.364;18.582;2023-07-29T05:30:19;6.10;;;3.40;;
48363;SDS011;34170;54.364;18.582;2023-07-29T05:32:46;4.38;;;3.60;;
48363;SDS011;34170;54.364;18.582;2023-07-29T05:35:14;5.07;;;2.85;;
48363;SDS011;34170;54.364;18.582;2023-07-29T05:37:41;4.60;;;2.53;;
48363;SDS011;34170;54.364;18.582;2023-07-29T05:40:09;3.13;;;2.58;;
48363;SDS011;34170;54.364;18.582;2023-07-29T05:42:38;3.17;;;2.33;;
48363;SDS011;34170;54.364;18.582;2023-07-29T05:45:06;3.75;;;2.65;;
48363;SDS011;34170;54.364;18.582;2023-07-29T05:47:34;5.13;;;2.60;;
48363;SDS011;34170;54.364;18.582;2023-07-29T05:50:03;2.30;;;2.03;;
48363;SDS011;34170;54.364;18.582;2023-07-29T05:52:31;3.35;;;2.17;;
48363;SDS011;34170;54.364;18.582;2023-07-29T05:54:59;3.17;;;2.08;;
48363;SDS011;34170;54.364;18.582;2023-07-29T05:57:27;3.50;;;2.60;;
48363;SDS011;34170;54.364;18.582;2023-07-29T05:59:55;4.28;;;2.28;;
48363;SDS011;34170;54.364;18.582;2023-07-29T06:02:22;2.75;;;2.25;;
48363;SDS011;34170;54.364;18.582;2023-07-29T06:04:51;3.83;;;2.25;;
48363;SDS011;34170;54.364;18.582;2023-07-29T06:07:19;3.53;;;2.20;;
48363;SDS011;34170;54.364;18.582;2023-07-29T06:09:46;3.58;;;2.20;;
48363;SDS011;34170;54.364;18.582;2023-07-29T06:12:14;2.85;;;2.00;;
48363;SDS011;34170;54.364;18.582;2023-07-29T06:14:41;3.03;;;2.08;;
48363;SDS011;34170;54.364;18.582;2023-07-29T06:17:09;2.72;;;2.00;;
48363;SDS011;34170;54.364;18.582;2023-07-29T06:19:39;4.10;;;2.17;;
48363;SDS011;34170;54.364;18.582;2023-07-29T06:22:06;2.40;;;2.00;;
48363;SDS011;34170;54.364;18.582;2023-07-29T06:24:34;2.55;;;2.20;;
48363;SDS011;34170;54.364;18.582;2023-07-29T06:27:01;2.75;;;1.98;;
48363;SDS011;34170;54.364;18.582;2023-07-29T06:29:29;2.08;;;1.88;;
48363;SDS011;34170;54.364;18.582;2023-07-29T06:31:56;3.38;;;1.85;;
48363;SDS011;34170;54.364;18.582;2023-07-29T06:34:25;3.33;;;1.65;;
48363;SDS011;34170;54.364;18.582;2023-07-29T06:36:52;2.22;;;1.80;;
48363;SDS011;34170;54.364;18.582;2023-07-29T06:39:20;1.95;;;1.60;;
48363;SDS011;34170;54.364;18.582;2023-07-29T06:41:47;2.78;;;1.75;;
48363;SDS011;34170;54.364;18.582;2023-07-29T06:46:45;2.83;;;2.03;;
48363;SDS011;34170;54.364;18.582;2023-07-29T06:49:13;3.60;;;1.95;;
48363;SDS011;34170;54.364;18.582;2023-07-29T06:51:40;1.42;;;1.30;;
48363;SDS011;34170;54.364;18.582;2023-07-29T06:54:08;2.45;;;1.70;;
48363;SDS011;34170;54.364;18.582;2023-07-29T06:56:35;2.28;;;1.67;;
48363;SDS011;34170;54.364;18.582;2023-07-29T06:59:03;3.22;;;1.88;;
48363;SDS011;34170;54.364;18.582;2023-07-29T07:01:30;3.38;;;1.77;;
48363;SDS011;34170;54.364;18.582;2023-07-29T07:03:58;2.22;;;1.50;;
48363;SDS011;34170;54.364;18.582;2023-07-29T07:06:26;6.82;;;1.73;;
48363;SDS011;34170;54.364;18.582;2023-07-29T07:08:53;2.95;;;1.42;;
48363;SDS011;34170;54.364;18.582;2023-07-29T07:11:21;7.70;;;1.50;;
48363;SDS011;34170;54.364;18.582;2023-07-29T07:13:48;6.53;;;1.77;;
48363;SDS011;34170;54.364;18.582;2023-07-29T07:16:15;1.77;;;1.67;;
48363;SDS011;34170;54.364;18.582;2023-07-29T07:18:43;2.03;;;1.52;;
48363;SDS011;34170;54.364;18.582;2023-07-29T07:21:11;3.47;;;1.73;;
48363;SDS011;34170;54.364;18.582;2023-07-29T07:23:39;2.13;;;1.55;;
48363;SDS011;34170;54.364;18.582;2023-07-29T07:26:06;2.78;;;1.58;;
48363;SDS011;34170;54.364;18.582;2023-07-29T07:28:34;1.83;;;1.60;;
48363;SDS011;34170;54.364;18.582;2023-07-29T07:31:01;2.85;;;1.48;;
48363;SDS011;34170;54.364;18.582;2023-07-29T07:33:29;2.47;;;1.85;;
48363;SDS011;34170;54.364;18.582;2023-07-29T07:35:56;2.47;;;1.70;;
48363;SDS011;34170;54.364;18.582;2023-07-29T07:38:24;2.80;;;1.80;;
48363;SDS011;34170;54.364;18.582;2023-07-29T07:40:54;2.90;;;1.83;;
48363;SDS011;34170;54.364;18.582;2023-07-29T07:43:23;2.60;;;1.77;;
48363;SDS011;34170;54.364;18.582;2023-07-29T07:45:51;3.90;;;1.98;;
48363;SDS011;34170;54.364;18.582;2023-07-29T07:48:24;2.80;;;1.65;;
48363;SDS011;34170;54.364;18.582;2023-07-29T07:50:52;2.55;;;1.30;;
48363;SDS011;34170;54.364;18.582;2023-07-29T07:53:20;3.75;;;1.70;;
48363;SDS011;34170;54.364;18.582;2023-07-29T07:55:47;3.00;;;1.98;;
48363;SDS011;34170;54.364;18.582;2023-07-29T07:58:15;1.85;;;1.70;;
48363;SDS011;34170;54.364;18.582;2023-07-29T08:00:42;2.40;;;1.38;;
48363;SDS011;34170;54.364;18.582;2023-07-29T08:03:10;2.83;;;1.67;;
48363;SDS011;34170;54.364;18.582;2023-07-29T08:05:38;2.85;;;1.60;;
48363;SDS011;34170;54.364;18.582;2023-07-29T08:08:05;2.97;;;1.52;;
48363;SDS011;34170;54.364;18.582;2023-07-29T08:10:33;2.15;;;1.60;;
48363;SDS011;34170;54.364;18.582;2023-07-29T08:13:01;3.35;;;1.45;;
48363;SDS011;34170;54.364;18.582;2023-07-29T08:15:28;2.13;;;1.70;;
48363;SDS011;34170;54.364;18.582;2023-07-29T08:17:56;2.25;;;1.58;;
48363;SDS011;34170;54.364;18.582;2023-07-29T08:20:23;1.42;;;1.20;;
48363;SDS011;34170;54.364;18.582;2023-07-29T08:22:51;2.22;;;1.42;;
48363;SDS011;34170;54.364;18.582;2023-07-29T08:25:18;3.55;;;1.38;;
48363;SDS011;34170;54.364;18.582;2023-07-29T08:27:46;2.20;;;1.48;;
48363;SDS011;34170;54.364;18.582;2023-07-29T08:30:13;2.20;;;1.40;;
48363;SDS011;34170;54.364;18.582;2023-07-29T08:32:43;2.00;;;1.10;;
48363;SDS011;34170;54.364;18.582;2023-07-29T08:35:11;2.75;;;1.50;;
48363;SDS011;34170;54.364;18.582;2023-07-29T08:37:39;1.65;;;1.20;;
48363;SDS011;34170;54.364;18.582;2023-07-29T08:40:06;1.77;;;1.08;;
48363;SDS011;34170;54.364;18.582;2023-07-29T08:42:35;2.92;;;1.52;;
48363;SDS011;34170;54.364;18.582;2023-07-29T08:45:08;1.65;;;1.10;;
48363;SDS011;34170;54.364;18.582;2023-07-29T08:47:38;2.30;;;1.30;;
48363;SDS011;34170;54.364;18.582;2023-07-29T08:50:06;2.65;;;1.45;;
48363;SDS011;34170;54.364;18.582;2023-07-29T08:52:34;1.40;;;1.30;;
48363;SDS011;34170;54.364;18.582;2023-07-29T08:55:03;1.90;;;1.20;;
48363;SDS011;34170;54.364;18.582;2023-07-29T08:57:31;2.10;;;1.15;;
48363;SDS011;34170;54.364;18.582;2023-07-29T08:59:59;1.75;;;1.50;;
48363;SDS011;34170;54.364;18.582;2023-07-29T09:02:29;1.60;;;1.20;;
48363;SDS011;34170;54.364;18.582;2023-07-29T09:04:56;1.40;;;0.88;;
48363;SDS011;34170;54.364;18.582;2023-07-29T09:07:24;1.70;;;1.30;;
48363;SDS011;34170;54.364;18.582;2023-07-29T09:09:52;1.77;;;1.38;;
48363;SDS011;34170;54.364;18.582;2023-07-29T09:12:20;1.92;;;1.35;;
48363;SDS011;34170;54.364;18.582;2023-07-29T09:14:51;1.77;;;1.10;;
48363;SDS011;34170;54.364;18.582;2023-07-29T09:17:20;2.33;;;1.42;;
48363;SDS011;34170;54.364;18.582;2023-07-29T09:19:49;2.22;;;1.33;;
48363;SDS011;34170;54.364;18.582;2023-07-29T09:22:18;1.70;;;1.27;;
48363;SDS011;34170;54.364;18.582;2023-07-29T09:24:46;1.95;;;1.23;;
48363;SDS011;34170;54.364;18.582;2023-07-29T09:27:24;2.30;;;1.10;;
48363;SDS011;34170;54.364;18.582;2023-07-29T09:29:53;3.35;;;1.33;;
48363;SDS011;34170;54.364;18.582;2023-07-29T09:32:24;1.92;;;1.33;;
48363;SDS011;34170;54.364;18.582;2023-07-29T09:34:52;2.28;;;1.30;;
48363;SDS011;34170;54.364;18.582;2023-07-29T09:37:23;1.83;;;1.30;;
48363;SDS011;34170;54.364;18.582;2023-07-29T09:39:51;2.42;;;1.48;;
48363;SDS011;34170;54.364;18.582;2023-07-29T09:42:19;2.70;;;1.38;;
48363;SDS011;34170;54.364;18.582;2023-07-29T09:44:50;1.13;;;1.02;;
48363;SDS011;34170;54.364;18.582;2023-07-29T09:49:47;1.88;;;1.20;;
48363;SDS011;34170;54.364;18.582;2023-07-29T09:52:18;2.13;;;1.33;;
48363;SDS011;34170;54.364;18.582;2023-07-29T09:54:46;2.28;;;1.52;;
48363;SDS011;34170;54.364;18.582;2023-07-29T09:57:15;2.00;;;1.35;;
48363;SDS011;34170;54.364;18.582;2023-07-29T09:59:54;1.45;;;1.00;;
48363;SDS011;34170;54.364;18.582;2023-07-29T10:02:23;2.25;;;1.13;;
48363;SDS011;34170;54.364;18.582;2023-07-29T10:04:52;2.47;;;1.33;;
48363;SDS011;34170;54.364;18.582;2023-07-29T10:07:20;1.33;;;1.08;;
48363;SDS011;34170;54.364;18.582;2023-07-29T10:09:48;1.30;;;1.02;;
48363;SDS011;34170;54.364;18.582;2023-07-29T10:12:19;1.90;;;1.20;;
48363;SDS011;34170;54.364;18.582;2023-07-29T10:14:47;1.40;;;1.10;;
48363;SDS011;34170;54.364;18.582;2023-07-29T10:17:15;1.20;;;0.80;;
48363;SDS011;34170;54.364;18.582;2023-07-29T10:19:43;2.10;;;1.20;;
48363;SDS011;34170;54.364;18.582;2023-07-29T10:22:12;1.65;;;1.10;;
48363;SDS011;34170;54.364;18.582;2023-07-29T10:24:44;1.63;;;1.00;;
48363;SDS011;34170;54.364;18.582;2023-07-29T10:27:14;1.67;;;1.05;;
48363;SDS011;34170;54.364;18.582;2023-07-29T10:32:12;2.13;;;0.95;;
48363;SDS011;34170;54.364;18.582;2023-07-29T10:34:40;1.35;;;1.08;;
48363;SDS011;34170;54.364;18.582;2023-07-29T10:37:08;1.45;;;0.80;;
48363;SDS011;34170;54.364;18.582;2023-07-29T10:39:39;1.60;;;1.17;;
48363;SDS011;34170;54.364;18.582;2023-07-29T10:42:08;2.42;;;1.80;;
48363;SDS011;34170;54.364;18.582;2023-07-29T10:47:12;2.75;;;1.38;;
48363;SDS011;34170;54.364;18.582;2023-07-29T10:49:40;1.67;;;1.20;;
48363;SDS011;34170;54.364;18.582;2023-07-29T10:52:08;1.73;;;1.40;;
48363;SDS011;34170;54.364;18.582;2023-07-29T10:57:14;1.75;;;1.30;;
48363;SDS011;34170;54.364;18.582;2023-07-29T11:00:04;1.75;;;1.45;;
48363;SDS011;34170;54.364;18.582;2023-07-29T11:02:33;1.73;;;1.27;;
48363;SDS011;34170;54.364;18.582;2023-07-29T11:05:06;1.80;;;1.30;;
48363;SDS011;34170;54.364;18.582;2023-07-29T11:07:56;1.95;;;1.25;;
48363;SDS011;34170;54.364;18.582;2023-07-29T11:10:22;2.75;;;1.35;;
48363;SDS011;34170;54.364;18.582;2023-07-29T11:12:51;2.72;;;1.67;;
48363;SDS011;34170;54.364;18.582;2023-07-29T11:15:25;1.63;;;1.20;;
48363;SDS011;34170;54.364;18.582;2023-07-29T11:17:54;1.80;;;1.30;;
48363;SDS011;34170;54.364;18.582;2023-07-29T11:20:27;3.40;;;1.60;;
48363;SDS011;34170;54.364;18.582;2023-07-29T11:22:57;2.15;;;1.52;;
48363;SDS011;34170;54.364;18.582;2023-07-29T11:25:27;2.20;;;1.50;;
48363;SDS011;34170;54.364;18.582;2023-07-29T11:27:56;1.98;;;1.45;;
48363;SDS011;34170;54.364;18.582;2023-07-29T11:30:29;2.72;;;1.50;;
48363;SDS011;34170;54.364;18.582;2023-07-29T11:32:58;2.72;;;1.40;;
48363;SDS011;34170;54.364;18.582;2023-07-29T11:35:26;2.83;;;1.70;;
48363;SDS011;34170;54.364;18.582;2023-07-29T11:37:54;2.15;;;1.55;;
48363;SDS011;34170;54.364;18.582;2023-07-29T11:40:24;2.38;;;1.55;;
48363;SDS011;34170;54.364;18.582;2023-07-29T11:42:52;1.98;;;1.25;;
48363;SDS011;34170;54.364;18.582;2023-07-29T11:45:22;3.00;;;1.40;;
48363;SDS011;34170;54.364;18.582;2023-07-29T11:48:01;2.65;;;1.30;;
48363;SDS011;34170;54.364;18.582;2023-07-29T11:50:29;3.35;;;1.50;;
48363;SDS011;34170;54.364;18.582;2023-07-29T11:52:57;2.72;;;1.80;;
48363;SDS011;34170;54.364;18.582;2023-07-29T11:55:24;2.80;;;1.63;;
48363;SDS011;34170;54.364;18.582;2023-07-29T11:57:52;2.15;;;1.38;;
48363;SDS011;34170;54.364;18.582;2023-07-29T12:00:20;3.60;;;1.55;;
48363;SDS011;34170;54.364;18.582;2023-07-29T12:02:48;1.73;;;1.50;;
48363;SDS011;34170;54.364;18.582;2023-07-29T12:05:17;2.35;;;0.90;;
48363;SDS011;34170;54.364;18.582;2023-07-29T12:07:45;1.50;;;1.20;;
48363;SDS011;34170;54.364;18.582;2023-07-29T12:10:13;5.53;;;1.48;;
48363;SDS011;34170;54.364;18.582;2023-07-29T12:12:45;2.00;;;1.35;;
48363;SDS011;34170;54.364;18.582;2023-07-29T12:15:13;3.42;;;1.60;;
48363;SDS011;34170;54.364;18.582;2023-07-29T12:17:41;2.00;;;1.42;;
48363;SDS011;34170;54.364;18.582;2023-07-29T12:20:09;1.63;;;1.35;;
48363;SDS011;34170;54.364;18.582;2023-07-29T12:22:38;2.08;;;1.70;;
48363;SDS011;34170;54.364;18.582;2023-07-29T12:25:06;2.40;;;1.77;;
48363;SDS011;34170;54.364;18.582;2023-07-29T12:27:34;2.38;;;1.30;;
48363;SDS011;34170;54.364;18.582;2023-07-29T12:30:01;3.80;;;1.73;;
48363;SDS011;34170;54.364;18.582;2023-07-29T12:32:32;1.35;;;1.25;;
48363;SDS011;34170;54.364;18.582;2023-07-29T12:34:59;5.95;;;1.30;;
48363;SDS011;34170;54.364;18.582;2023-07-29T12:37:30;2.55;;;1.55;;
48363;SDS011;34170;54.364;18.582;2023-07-29T12:39:59;1.83;;;1.58;;
48363;SDS011;34170;54.364;18.582;2023-07-29T12:42:26;2.28;;;1.40;;
48363;SDS011;34170;54.364;18.582;2023-07-29T12:44:54;3.25;;;1.33;;
48363;SDS011;34170;54.364;18.582;2023-07-29T12:47:21;3.15;;;1.50;;
48363;SDS011;34170;54.364;18.582;2023-07-29T12:49:49;1.90;;;1.20;;
48363;SDS011;34170;54.364;18.582;2023-07-29T12:52:16;1.40;;;1.10;;
48363;SDS011;34170;54.364;18.582;2023-07-29T12:54:44;1.83;;;1.02;;
48363;SDS011;34170;54.364;18.582;2023-07-29T12:57:11;2.45;;;1.50;;
48363;SDS011;34170;54.364;18.582;2023-07-29T12:59:39;2.42;;;1.52;;
48363;SDS011;34170;54.364;18.582;2023-07-29T13:02:06;2.30;;;1.27;;
48363;SDS011;34170;54.364;18.582;2023-07-29T13:04:34;1.77;;;1.30;;
48363;SDS011;34170;54.364;18.582;2023-07-29T13:07:01;3.10;;;1.30;;
48363;SDS011;34170;54.364;18.582;2023-07-29T13:09:29;3.05;;;1.80;;
48363;SDS011;34170;54.364;18.582;2023-07-29T13:11:56;2.42;;;1.30;;
48363;SDS011;34170;54.364;18.582;2023-07-29T13:14:24;1.95;;;1.50;;
48363;SDS011;34170;54.364;18.582;2023-07-29T13:16:53;1.58;;;1.30;;
48363;SDS011;34170;54.364;18.582;2023-07-29T13:19:20;2.10;;;1.58;;
48363;SDS011;34170;54.364;18.582;2023-07-29T13:21:48;1.98;;;1.55;;
48363;SDS011;34170;54.364;18.582;2023-07-29T13:24:15;8.02;;;1.70;;
48363;SDS011;34170;54.364;18.582;2023-07-29T13:26:43;2.88;;;1.63;;
48363;SDS011;34170;54.364;18.582;2023-07-29T13:29:10;1.92;;;1.33;;
48363;SDS011;34170;54.364;18.582;2023-07-29T13:31:38;2.83;;;1.58;;
48363;SDS011;34170;54.364;18.582;2023-07-29T13:34:05;3.15;;;1.30;;
48363;SDS011;34170;54.364;18.582;2023-07-29T13:36:33;3.28;;;1.40;;
48363;SDS011;34170;54.364;18.582;2023-07-29T13:39:01;1.65;;;1.23;;
48363;SDS011;34170;54.364;18.582;2023-07-29T13:41:28;3.33;;;1.40;;
48363;SDS011;34170;54.364;18.582;2023-07-29T13:43:55;2.45;;;1.35;;
48363;SDS011;34170;54.364;18.582;2023-07-29T13:46:23;1.50;;;1.30;;
48363;SDS011;34170;54.364;18.582;2023-07-29T13:48:50;4.72;;;1.27;;
48363;SDS011;34170;54.364;18.582;2023-07-29T13:51:18;2.30;;;1.23;;
48363;SDS011;34170;54.364;18.582;2023-07-29T13:53:45;1.40;;;1.00;;
48363;SDS011;34170;54.364;18.582;2023-07-29T13:56:13;1.50;;;1.20;;
48363;SDS011;34170;54.364;18.582;2023-07-29T13:58:40;1.98;;;1.33;;
48363;SDS011;34170;54.364;18.582;2023-07-29T14:01:08;1.80;;;1.10;;
48363;SDS011;34170;54.364;18.582;2023-07-29T14:03:35;3.95;;;1.67;;
48363;SDS011;34170;54.364;18.582;2023-07-29T14:06:03;1.73;;;1.30;;
48363;SDS011;34170;54.364;18.582;2023-07-29T14:08:30;1.77;;;1.33;;
48363;SDS011;34170;54.364;18.582;2023-07-29T14:10:58;1.13;;;1.02;;
48363;SDS011;34170;54.364;18.582;2023-07-29T14:13:25;8.13;;;1.50;;
48363;SDS011;34170;54.364;18.582;2023-07-29T14:15:53;1.70;;;1.33;;
48363;SDS011;34170;54.364;18.582;2023-07-29T14:18:21;1.40;;;1.30;;
48363;SDS011;34170;54.364;18.582;2023-07-29T14:20:48;3.10;;;1.30;;
48363;SDS011;34170;54.364;18.582;2023-07-29T14:23:18;1.95;;;1.17;;
48363;SDS011;34170;54.364;18.582;2023-07-29T14:25:45;1.73;;;1.40;;
48363;SDS011;34170;54.364;18.582;2023-07-29T14:28:13;2.45;;;1.15;;
48363;SDS011;34170;54.364;18.582;2023-07-29T14:30:41;1.58;;;1.30;;
48363;SDS011;34170;54.364;18.582;2023-07-29T14:33:08;1.95;;;1.25;;
48363;SDS011;34170;54.364;18.582;2023-07-29T14:35:36;3.35;;;1.38;;
48363;SDS011;34170;54.364;18.582;2023-07-29T14:38:03;1.98;;;1.52;;
48363;SDS011;34170;54.364;18.582;2023-07-29T14:40:31;2.60;;;1.35;;
48363;SDS011;34170;54.364;18.582;2023-07-29T14:42:58;2.85;;;1.25;;
48363;SDS011;34170;54.364;18.582;2023-07-29T14:45:26;3.00;;;1.20;;
48363;SDS011;34170;54.364;18.582;2023-07-29T14:47:53;1.95;;;1.60;;
48363;SDS011;34170;54.364;18.582;2023-07-29T14:50:21;1.45;;;1.10;;
48363;SDS011;34170;54.364;18.582;2023-07-29T14:52:48;1.52;;;1.20;;
48363;SDS011;34170;54.364;18.582;2023-07-29T14:55:16;2.10;;;1.17;;
48363;SDS011;34170;54.364;18.582;2023-07-29T14:57:43;1.77;;;1.23;;
48363;SDS011;34170;54.364;18.582;2023-07-29T15:00:11;1.65;;;0.93;;